Mutty's Pride — V4TL — position and weather

sailwx.info

Track history (hours):
 
Tides and Currents Weather Stations Pressure Air Temp Water Temp Dewpoint Dewpoint Depression Visibility Wind Speed Wind Dir Waves Ship Positions

Mutty's Pride

Last reported at 2017-Oct-22 04:00 UTC. Time now 2017-Nov-19 21:48 UTC.
Position N 17°33' W 062°28'.
Warning: this ship's position is 28 days out of date.

Length 60 m; draft 2.3 m.

Type: Cargo ship. MMSI: 341504000.

Date/timePositionNaut miles runAvg speedWind from/ knotsBaromVisibWave heightAir tempDewpointWater temp
2017-Oct-22 04:00N 17°33' W 062°28'4 7.0
2017-Oct-22 03:29N 17°31' W 062°25'3 6.9
2017-Oct-22 03:00N 17°29' W 062°22'3 6.6
2017-Oct-22 02:31N 17°27' W 062°20'3 6.8
2017-Oct-22 02:00N 17°25' W 062°17'4 7.1
2017-Oct-22 01:31N 17°22' W 062°14'4 7.1
2017-Oct-22 01:01N 17°20' W 062°11'4 7.3
2017-Oct-22 00:31N 17°18' W 062°08'4 7.4
2017-Oct-22 00:01N 17°16' W 062°05'4 7.3
2017-Oct-21 23:31N 17°13' W 062°02'4 7.2
2017-Oct-21 23:01N 17°12' W 061°59'4 7.3
2017-Oct-21 22:30N 17°11' W 061°55'4 7.4
2017-Oct-21 22:00N 17°11' W 061°51'4 7.1
2017-Oct-21 21:30N 17°11' W 061°48'3 6.7
2017-Oct-21 21:00N 17°08' W 061°46'0 0.7
2017-Oct-21 20:30N 17°08' W 061°45'0 0.0
2017-Oct-21 20:00N 17°08' W 061°45'0 0.0
2017-Oct-21 19:31N 17°08' W 061°45'0 0.0
2017-Oct-21 19:01N 17°08' W 061°45'0 0.0
2017-Oct-21 18:31N 17°08' W 061°45'0 0.0
2017-Oct-21 18:01N 17°08' W 061°45'0 0.0
2017-Oct-21 17:31N 17°08' W 061°45'0 0.0
2017-Oct-21 17:01N 17°08' W 061°45'0 0.0
2017-Oct-21 16:31N 17°08' W 061°45'0 0.0
2017-Oct-21 16:01N 17°08' W 061°45'0 0.0
2017-Oct-21 15:31N 17°08' W 061°45'0 0.0
2017-Oct-21 15:00N 17°08' W 061°45'0 0.0
2017-Oct-21 14:31N 17°08' W 061°45'0 0.0
2017-Oct-21 13:31N 17°08' W 061°45'0 0.0
2017-Oct-21 13:00N 17°08' W 061°45'0 0.0
2017-Oct-21 12:30N 17°08' W 061°45'0 0.0
2017-Oct-21 12:01N 17°08' W 061°45'0 0.0
2017-Oct-21 11:31N 17°08' W 061°45'0 0.0
2017-Oct-21 11:00N 17°08' W 061°45'0 0.0
2017-Oct-21 10:31N 17°08' W 061°45'1 2.3
2017-Oct-21 10:01N 17°09' W 061°46'3 6.4
2017-Oct-21 09:30N 17°11' W 061°49'3 5.9
2017-Oct-21 09:00N 17°10' W 061°52'3 5.9
2017-Oct-21 08:30N 17°10' W 061°54'3 6.3
2017-Oct-21 08:01N 17°09' W 061°58'4 7.6
2017-Oct-21 07:31N 17°08' W 062°02'4 7.3
2017-Oct-21 07:01N 17°08' W 062°05'4 7.1
2017-Oct-21 06:30N 17°07' W 062°09'4 7.0
2017-Oct-21 06:01N 17°07' W 062°13'4 6.8
2017-Oct-21 05:29N 17°07' W 062°16'3 7.0
2017-Oct-21 05:00N 17°06' W 062°20'  
2017-Oct-15 02:11N 18°02' W 063°07'2 9.5
2017-Oct-15 02:00N 18°01' W 063°06'1 0.1
2017-Oct-14 12:04N 18°01' W 063°05'1 8.2
2017-Oct-14 12:01N 18°01' W 063°06'  
Track history (hours):
 
Tides and Currents Weather Stations Pressure Air Temp Water Temp Dewpoint Dewpoint Depression Visibility Wind Speed Wind Dir Waves Ship Positions

Mutty's Pride

Last reported at 2017-Oct-22 04:00 UTC. Time now 2017-Nov-19 21:48 UTC.
Position N 17°33' W 062°28'.
Warning: this ship's position is 28 days out of date.

Length 60 m; draft 2.3 m.

Type: Cargo ship. MMSI: 341504000.

Date/timePositionNaut miles runAvg speedWind from/ knotsBaromVisibWave heightAir tempDewpointWater temp
2017-Oct-22 04:00N 17°33' W 062°28'4 7.0
2017-Oct-22 03:29N 17°31' W 062°25'3 6.9
2017-Oct-22 03:00N 17°29' W 062°22'3 6.6
2017-Oct-22 02:31N 17°27' W 062°20'3 6.8
2017-Oct-22 02:00N 17°25' W 062°17'4 7.1
2017-Oct-22 01:31N 17°22' W 062°14'4 7.1
2017-Oct-22 01:01N 17°20' W 062°11'4 7.3
2017-Oct-22 00:31N 17°18' W 062°08'4 7.4
2017-Oct-22 00:01N 17°16' W 062°05'4 7.3
2017-Oct-21 23:31N 17°13' W 062°02'4 7.2
2017-Oct-21 23:01N 17°12' W 061°59'4 7.3
2017-Oct-21 22:30N 17°11' W 061°55'4 7.4
2017-Oct-21 22:00N 17°11' W 061°51'4 7.1
2017-Oct-21 21:30N 17°11' W 061°48'3 6.7
2017-Oct-21 21:00N 17°08' W 061°46'0 0.7
2017-Oct-21 20:30N 17°08' W 061°45'0 0.0
2017-Oct-21 20:00N 17°08' W 061°45'0 0.0
2017-Oct-21 19:31N 17°08' W 061°45'0 0.0
2017-Oct-21 19:01N 17°08' W 061°45'0 0.0
2017-Oct-21 18:31N 17°08' W 061°45'0 0.0
2017-Oct-21 18:01N 17°08' W 061°45'0 0.0
2017-Oct-21 17:31N 17°08' W 061°45'0 0.0
2017-Oct-21 17:01N 17°08' W 061°45'0 0.0
2017-Oct-21 16:31N 17°08' W 061°45'0 0.0
2017-Oct-21 16:01N 17°08' W 061°45'0 0.0
2017-Oct-21 15:31N 17°08' W 061°45'0 0.0
2017-Oct-21 15:00N 17°08' W 061°45'0 0.0
2017-Oct-21 14:31N 17°08' W 061°45'0 0.0
2017-Oct-21 13:31N 17°08' W 061°45'0 0.0
2017-Oct-21 13:00N 17°08' W 061°45'0 0.0
2017-Oct-21 12:30N 17°08' W 061°45'0 0.0
2017-Oct-21 12:01N 17°08' W 061°45'0 0.0
2017-Oct-21 11:31N 17°08' W 061°45'0 0.0
2017-Oct-21 11:00N 17°08' W 061°45'0 0.0
2017-Oct-21 10:31N 17°08' W 061°45'1 2.3
2017-Oct-21 10:01N 17°09' W 061°46'3 6.4
2017-Oct-21 09:30N 17°11' W 061°49'3 5.9
2017-Oct-21 09:00N 17°10' W 061°52'3 5.9
2017-Oct-21 08:30N 17°10' W 061°54'3 6.3
2017-Oct-21 08:01N 17°09' W 061°58'4 7.6
2017-Oct-21 07:31N 17°08' W 062°02'4 7.3
2017-Oct-21 07:01N 17°08' W 062°05'4 7.1
2017-Oct-21 06:30N 17°07' W 062°09'4 7.0
2017-Oct-21 06:01N 17°07' W 062°13'4 6.8
2017-Oct-21 05:29N 17°07' W 062°16'3 7.0
2017-Oct-21 05:00N 17°06' W 062°20'  
2017-Oct-15 02:11N 18°02' W 063°07'2 9.5
2017-Oct-15 02:00N 18°01' W 063°06'1 0.1
2017-Oct-14 12:04N 18°01' W 063°05'1 8.2
2017-Oct-14 12:01N 18°01' W 063°06'  

Dump ship's entire track history